Time;durP1;ratioP1;P1;durP2;ratioP2;P2;SDS_P1;SDS_P2;PMS_P1;PMS_P2;Temp;Humidity;BMP_temperature;BMP_pressure;BME280_temperature;BME280_humidity;BME280_pressure;Samples;Min_cycle;Max_cycle;Signal;HPM_P1;HPM_P2
2021/01/16 00:01:29;;;;;;;;;;;-5.20;99.90;;;;;;5051979;28;19913;-67
2021/01/16 00:03:55;;;;;;;;;;;-5.20;99.90;;;;;;5051681;28;20274;-68
2021/01/16 00:06:28;;;;;;;;;;;-5.20;99.90;;;;;;5051951;28;20377;-68
2021/01/16 00:08:55;;;;;;;;;;;-5.20;99.90;;;;;;5052092;28;19919;-67
2021/01/16 00:11:21;;;;;;;;;;;-5.20;99.90;;;;;;5052127;28;20090;-68
2021/01/16 00:13:47;;;;;;;;;;;-5.20;99.90;;;;;;5054080;28;20367;-67
2021/01/16 00:16:13;;;;;;;;;;;-5.20;99.90;;;;;;5056003;28;19962;-67
2021/01/16 00:18:39;;;;;;;;;;;-5.20;99.90;;;;;;5055827;28;19919;-67
2021/01/16 00:21:05;;;;;;;;;;;-5.20;99.90;;;;;;5055371;28;20369;-67
2021/01/16 00:23:31;;;;;;;;;;;-5.30;99.90;;;;;;5055853;28;19908;-67
2021/01/16 00:25:57;;;;;;;;;;;-5.30;99.90;;;;;;5055976;28;20411;-68
2021/01/16 00:28:23;;;;;;;;;;;-5.40;99.90;;;;;;5054333;28;19916;-67
2021/01/16 00:30:49;;;;;;;;;;;-5.40;99.90;;;;;;5055671;28;19916;-67
2021/01/16 00:33:25;;;;;;;;;;;-5.30;99.90;;;;;;5054248;28;19916;-67
2021/01/16 00:35:51;;;;;;;;;;;-5.30;99.90;;;;;;5037313;28;19917;-67
2021/01/16 00:38:17;;;;;;;;;;;-5.30;99.90;;;;;;5055907;28;19912;-67
2021/01/16 00:40:43;;;;;;;;;;;-5.30;99.90;;;;;;5055547;28;20361;-67
2021/01/16 00:43:11;;;;;;;;;;;-5.30;99.90;;;;;;5055789;28;19962;-67
2021/01/16 00:45:38;;;;;;;;;;;-5.30;99.90;;;;;;5055068;28;20259;-68
2021/01/16 00:48:13;;;;;;;;;;;-5.30;99.90;;;;;;5054122;28;20387;-68
2021/01/16 00:50:40;;;;;;;;;;;-5.30;99.90;;;;;;5054920;28;20350;-67
2021/01/16 00:53:06;;;;;;;;;;;-5.30;99.90;;;;;;5055525;28;19919;-68
2021/01/16 00:55:32;;;;;;;;;;;-5.40;99.90;;;;;;5055475;28;19925;-67
2021/01/16 00:57:58;;;;;;;;;;;-5.40;99.90;;;;;;5055350;28;19935;-67
2021/01/16 01:00:26;;;;;;;;;;;-5.30;99.90;;;;;;5055475;28;19964;-67
2021/01/16 01:02:52;;;;;;;;;;;-5.30;99.90;;;;;;5053251;28;19919;-67
2021/01/16 01:05:21;;;;;;;;;;;-5.30;99.90;;;;;;5055169;28;19913;-68
2021/01/16 01:07:48;;;;;;;;;;;-5.40;99.90;;;;;;5054995;28;19920;-67
2021/01/16 01:10:15;;;;;;;;;;;-5.30;99.90;;;;;;5054857;28;20281;-67
2021/01/16 01:12:41;;;;;;;;;;;-5.40;99.90;;;;;;5054819;28;19915;-68
2021/01/16 01:15:07;;;;;;;;;;;-5.40;99.90;;;;;;5054997;28;19916;-67
2021/01/16 01:17:33;;;;;;;;;;;-5.30;99.90;;;;;;5054669;28;19909;-67
2021/01/16 01:19:59;;;;;;;;;;;-5.30;99.90;;;;;;5053446;28;20355;-67
2021/01/16 01:22:30;;;;;;;;;;;-5.30;99.90;;;;;;5055021;28;19913;-67
2021/01/16 01:24:59;;;;;;;;;;;-5.30;99.90;;;;;;5054194;28;19913;-68
2021/01/16 01:27:25;;;;;;;;;;;-5.30;99.90;;;;;;5054794;28;20288;-67
2021/01/16 01:29:51;;;;;;;;;;;-5.30;99.90;;;;;;5054413;28;19921;-67
2021/01/16 01:32:17;;;;;;;;;;;-5.40;99.90;;;;;;5053344;28;19962;-67
2021/01/16 01:34:43;;;;;;;;;;;-5.50;99.90;;;;;;5054127;28;19924;-67
2021/01/16 01:37:09;;;;;;;;;;;-5.50;99.90;;;;;;5054695;28;19912;-67
2021/01/16 01:39:35;;;;;;;;;;;-5.50;99.90;;;;;;5054603;28;19917;-67
2021/01/16 01:42:01;;;;;;;;;;;-5.40;99.90;;;;;;5054141;28;19921;-68
2021/01/16 01:44:27;;;;;;;;;;;-5.40;99.90;;;;;;5054287;28;19916;-67
2021/01/16 01:46:52;;;;;;;;;;;-5.50;99.90;;;;;;5053880;28;19913;-67
2021/01/16 01:49:18;;;;;;;;;;;-5.60;99.90;;;;;;5054413;28;19954;-67
2021/01/16 01:51:44;;;;;;;;;;;-5.60;99.90;;;;;;5053970;28;19912;-67
2021/01/16 01:54:10;;;;;;;;;;;-5.70;99.90;;;;;;5053901;28;19967;-67
2021/01/16 01:56:36;;;;;;;;;;;-5.60;99.90;;;;;;5054327;28;19928;-67
2021/01/16 01:59:02;;;;;;;;;;;-5.60;99.90;;;;;;5054061;28;19909;-67
2021/01/16 02:01:29;;;;;;;;;;;-5.60;99.90;;;;;;5052793;28;19947;-67
2021/01/16 02:03:56;;;;;;;;;;;-5.70;99.90;;;;;;5053590;28;19915;-67
2021/01/16 02:06:22;;;;;;;;;;;-5.80;99.90;;;;;;5054088;28;19932;-67
2021/01/16 02:08:47;;;;;;;;;;;-5.70;99.90;;;;;;5053719;28;20290;-67
2021/01/16 02:11:13;;;;;;;;;;;-5.70;99.90;;;;;;5053682;28;19908;-65
2021/01/16 02:13:39;;;;;;;;;;;-5.70;99.90;;;;;;5032266;28;20321;-65
2021/01/16 02:16:09;;;;;;;;;;;-5.80;99.90;;;;;;5049187;28;20309;-65
2021/01/16 02:18:36;;;;;;;;;;;-5.70;99.90;;;;;;5052503;28;19912;-66
2021/01/16 02:21:03;;;;;;;;;;;-5.70;99.90;;;;;;5053366;28;19917;-65
2021/01/16 02:23:29;;;;;;;;;;;-5.70;99.90;;;;;;5053701;28;19915;-65
2021/01/16 02:26:07;;;;;;;;;;;-5.80;99.90;;;;;;5053431;28;19913;-65
2021/01/16 02:28:36;;;;;;;;;;;-5.90;99.90;;;;;;5053344;28;19921;-65
2021/01/16 02:31:03;;;;;;;;;;;-5.90;99.90;;;;;;5051875;28;19919;-65
2021/01/16 02:33:29;;;;;;;;;;;-5.90;99.90;;;;;;5052180;28;20372;-67
2021/01/16 02:36:01;;;;;;;;;;;-5.80;99.90;;;;;;5051789;28;19920;-68
2021/01/16 02:38:30;;;;;;;;;;;-5.80;99.90;;;;;;5051793;28;19912;-68
2021/01/16 02:41:03;;;;;;;;;;;-5.80;99.90;;;;;;5053149;28;19909;-68
2021/01/16 02:43:56;;;;;;;;;;;-5.70;99.90;;;;;;5051812;28;20354;-67
2021/01/16 02:46:25;;;;;;;;;;;-5.80;99.90;;;;;;5051075;28;19909;-68
2021/01/16 02:48:58;;;;;;;;;;;-5.80;99.90;;;;;;5044305;28;20292;-68
2021/01/16 02:51:26;;;;;;;;;;;-5.80;99.90;;;;;;5052200;28;19916;-66
2021/01/16 02:53:52;;;;;;;;;;;-5.90;99.90;;;;;;5052566;28;19913;-65
2021/01/16 02:56:18;;;;;;;;;;;-5.90;99.90;;;;;;5051885;28;19920;-65
2021/01/16 02:58:44;;;;;;;;;;;-6.00;99.90;;;;;;5051579;28;19929;-65
2021/01/16 03:01:10;;;;;;;;;;;-6.00;99.90;;;;;;5053131;28;20373;-65
2021/01/16 03:03:36;;;;;;;;;;;-6.00;99.90;;;;;;5052359;28;19904;-68
2021/01/16 03:06:02;;;;;;;;;;;-6.00;99.90;;;;;;5051491;28;20274;-67
2021/01/16 03:08:28;;;;;;;;;;;-6.00;99.90;;;;;;5051732;28;19911;-67
2021/01/16 03:10:54;;;;;;;;;;;-6.00;99.90;;;;;;5052643;28;19938;-67
2021/01/16 03:13:20;;;;;;;;;;;-6.00;99.90;;;;;;5051580;28;19916;-67
2021/01/16 03:15:46;;;;;;;;;;;-6.10;99.90;;;;;;5034621;28;20660;-67
2021/01/16 03:18:12;;;;;;;;;;;-6.00;99.90;;;;;;5050977;28;19920;-67
2021/01/16 03:20:38;;;;;;;;;;;-6.00;99.90;;;;;;5051402;28;19905;-67
2021/01/16 03:23:04;;;;;;;;;;;-6.00;99.90;;;;;;5052579;28;19909;-67
2021/01/16 03:25:31;;;;;;;;;;;-6.10;99.90;;;;;;5053054;28;19912;-67
2021/01/16 03:27:57;;;;;;;;;;;-6.10;99.90;;;;;;5044009;28;20389;-67
2021/01/16 03:30:23;;;;;;;;;;;-6.10;99.90;;;;;;5052429;28;19916;-67
2021/01/16 03:32:49;;;;;;;;;;;-6.10;99.90;;;;;;5051870;28;19909;-67
2021/01/16 03:35:18;;;;;;;;;;;-6.10;99.90;;;;;;5052444;28;19921;-67
2021/01/16 03:37:44;;;;;;;;;;;-6.00;99.90;;;;;;5051043;28;19927;-67
2021/01/16 03:40:10;;;;;;;;;;;-6.10;99.90;;;;;;5051362;28;19912;-67
2021/01/16 03:42:37;;;;;;;;;;;-6.10;99.90;;;;;;5051100;28;19908;-67
2021/01/16 03:45:06;;;;;;;;;;;-6.10;99.90;;;;;;5051106;28;19912;-67
2021/01/16 03:47:32;;;;;;;;;;;-6.10;99.90;;;;;;5053692;28;19912;-67
2021/01/16 03:49:58;;;;;;;;;;;-6.10;99.90;;;;;;5058631;28;19924;-65
2021/01/16 03:52:28;;;;;;;;;;;-6.10;99.90;;;;;;5059033;28;19999;-67
2021/01/16 03:54:54;;;;;;;;;;;-6.10;99.90;;;;;;5057681;28;20262;-67
2021/01/16 03:57:20;;;;;;;;;;;-6.20;99.90;;;;;;5059140;28;19959;-67
2021/01/16 03:59:46;;;;;;;;;;;-6.10;99.90;;;;;;5058482;28;19909;-67
2021/01/16 04:02:12;;;;;;;;;;;-6.20;99.90;;;;;;5058449;28;19924;-67
2021/01/16 04:04:38;;;;;;;;;;;-6.10;99.90;;;;;;5058741;28;19913;-67
2021/01/16 04:07:05;;;;;;;;;;;-6.10;99.90;;;;;;5057909;28;19917;-67
2021/01/16 04:09:31;;;;;;;;;;;-6.10;99.90;;;;;;5059007;28;20353;-67
2021/01/16 04:11:56;;;;;;;;;;;-6.10;99.90;;;;;;5058700;28;19958;-67
2021/01/16 04:14:22;;;;;;;;;;;-6.10;99.90;;;;;;5058663;28;19921;-67
2021/01/16 04:16:48;;;;;;;;;;;-6.10;99.90;;;;;;5057645;28;19924;-65
2021/01/16 04:19:14;;;;;;;;;;;-6.10;99.90;;;;;;5058917;28;19909;-65
2021/01/16 04:21:40;;;;;;;;;;;-6.20;99.90;;;;;;5058572;28;19920;-65
2021/01/16 04:24:06;;;;;;;;;;;-6.20;99.90;;;;;;5057087;28;19936;-65
2021/01/16 04:26:32;;;;;;;;;;;-6.30;99.90;;;;;;5059038;28;19913;-65
2021/01/16 04:28:58;;;;;;;;;;;-6.20;99.90;;;;;;5058124;28;19928;-65
2021/01/16 04:31:24;;;;;;;;;;;-6.30;99.90;;;;;;5058482;28;19913;-65
2021/01/16 04:33:50;;;;;;;;;;;-6.30;99.90;;;;;;5057147;28;19916;-65
2021/01/16 04:36:16;;;;;;;;;;;-6.20;99.90;;;;;;5058453;28;19921;-67
2021/01/16 04:38:42;;;;;;;;;;;-6.10;99.90;;;;;;5058512;28;20382;-67
2021/01/16 04:41:08;;;;;;;;;;;-6.10;99.90;;;;;;5058040;28;19912;-67
2021/01/16 04:43:35;;;;;;;;;;;-6.10;99.90;;;;;;5058594;28;20289;-67
2021/01/16 04:46:05;;;;;;;;;;;-6.20;99.90;;;;;;5056943;28;19923;-67
2021/01/16 04:48:34;;;;;;;;;;;-6.10;99.90;;;;;;5058573;28;19909;-67
2021/01/16 04:51:00;;;;;;;;;;;-6.20;99.90;;;;;;5058052;28;19915;-67
2021/01/16 04:53:37;;;;;;;;;;;-6.20;99.90;;;;;;5057385;28;20388;-67
2021/01/16 04:56:04;;;;;;;;;;;-6.20;99.90;;;;;;5058228;28;20308;-67
2021/01/16 04:58:31;;;;;;;;;;;-6.20;99.90;;;;;;5057641;28;19916;-67
2021/01/16 05:00:57;;;;;;;;;;;-6.30;99.90;;;;;;5054115;28;19967;-67
2021/01/16 05:03:23;;;;;;;;;;;-6.20;99.90;;;;;;5053825;28;19913;-67
2021/01/16 05:05:49;;;;;;;;;;;-6.30;99.90;;;;;;5053179;28;20027;-66
2021/01/16 05:08:15;;;;;;;;;;;-6.30;99.90;;;;;;5053947;28;19924;-65
2021/01/16 05:10:41;;;;;;;;;;;-6.30;99.90;;;;;;5053898;28;19915;-67
2021/01/16 05:13:13;;;;;;;;;;;-6.40;99.90;;;;;;5055002;28;19912;-66
2021/01/16 05:15:40;;;;;;;;;;;-6.40;99.90;;;;;;5054988;28;19928;-67
2021/01/16 05:18:07;;;;;;;;;;;-6.50;99.90;;;;;;5053690;28;19932;-67
2021/01/16 05:20:33;;;;;;;;;;;-6.40;99.90;;;;;;5054957;28;19924;-67
2021/01/16 05:23:11;;;;;;;;;;;-6.50;99.90;;;;;;5054643;28;20250;-67
2021/01/16 05:25:47;;;;;;;;;;;-6.50;99.90;;;;;;5048579;28;19912;-67
2021/01/16 05:28:14;;;;;;;;;;;-6.40;99.90;;;;;;5052866;28;19916;-67
2021/01/16 05:30:43;;;;;;;;;;;-6.30;99.90;;;;;;5054642;28;19913;-67
2021/01/16 05:33:09;;;;;;;;;;;-6.30;99.90;;;;;;5053951;28;19917;-66
2021/01/16 05:35:35;;;;;;;;;;;-6.40;99.90;;;;;;5047048;28;19931;-67
2021/01/16 05:38:01;;;;;;;;;;;-6.40;99.90;;;;;;5054501;28;19924;-67
2021/01/16 05:40:27;;;;;;;;;;;-6.40;99.90;;;;;;5052912;28;19908;-66
2021/01/16 05:42:53;;;;;;;;;;;-6.40;99.90;;;;;;5053184;28;20457;-67
2021/01/16 05:45:19;;;;;;;;;;;-6.40;99.90;;;;;;5053319;28;19909;-67
2021/01/16 05:47:45;;;;;;;;;;;-6.30;99.90;;;;;;5053002;28;19909;-67
2021/01/16 05:50:11;;;;;;;;;;;-6.40;99.90;;;;;;5053128;28;19909;-66
2021/01/16 05:52:38;;;;;;;;;;;-6.40;99.90;;;;;;5054135;28;19992;-66
2021/01/16 05:55:05;;;;;;;;;;;-6.40;99.90;;;;;;5054186;28;20282;-66
2021/01/16 05:57:31;;;;;;;;;;;-6.50;99.90;;;;;;5054261;28;19920;-67
2021/01/16 05:59:58;;;;;;;;;;;-6.50;99.90;;;;;;5052524;28;19912;-67
2021/01/16 06:02:31;;;;;;;;;;;-6.50;99.90;;;;;;5054074;28;19923;-67
2021/01/16 06:04:57;;;;;;;;;;;-6.50;99.90;;;;;;5053654;28;20648;-66
2021/01/16 06:07:23;;;;;;;;;;;-6.50;99.90;;;;;;5053911;28;19967;-66
2021/01/16 06:09:49;;;;;;;;;;;-6.50;99.90;;;;;;5054088;28;19909;-66
2021/01/16 06:12:15;;;;;;;;;;;-6.50;99.90;;;;;;5034802;28;19908;-66
2021/01/16 06:14:42;;;;;;;;;;;-6.50;99.90;;;;;;5052290;28;19912;-67
2021/01/16 06:17:09;;;;;;;;;;;-6.50;99.90;;;;;;5053661;28;19917;-67
2021/01/16 06:19:35;;;;;;;;;;;-6.50;99.90;;;;;;5052640;28;19912;-66
2021/01/16 06:22:01;;;;;;;;;;;-6.50;99.90;;;;;;5051745;28;19912;-67
2021/01/16 06:24:27;;;;;;;;;;;-6.40;99.90;;;;;;5052137;28;19913;-67
2021/01/16 06:26:53;;;;;;;;;;;-6.40;99.90;;;;;;5053556;28;20377;-67
2021/01/16 06:29:35;;;;;;;;;;;-6.50;99.90;;;;;;5053550;28;19917;-67
2021/01/16 06:32:07;;;;;;;;;;;-6.50;99.90;;;;;;5053033;28;19912;-67
2021/01/16 06:34:34;;;;;;;;;;;-6.40;99.90;;;;;;5053597;28;20384;-67
2021/01/16 06:37:10;;;;;;;;;;;-6.40;99.90;;;;;;5043671;28;19932;-66
2021/01/16 06:39:40;;;;;;;;;;;-6.50;99.90;;;;;;5053708;28;19909;-66
2021/01/16 06:42:07;;;;;;;;;;;-6.60;99.90;;;;;;5053050;28;19944;-67
2021/01/16 06:44:32;;;;;;;;;;;-6.60;99.90;;;;;;5053068;28;20263;-66
2021/01/16 06:46:59;;;;;;;;;;;-6.60;99.90;;;;;;5053143;28;19966;-67
2021/01/16 06:49:25;;;;;;;;;;;-6.60;99.90;;;;;;5053101;28;20280;-67
2021/01/16 06:51:52;;;;;;;;;;;-6.50;99.90;;;;;;5053069;28;19909;-67
2021/01/16 06:54:21;;;;;;;;;;;-6.50;99.90;;;;;;5053138;28;19928;-66
2021/01/16 06:56:47;;;;;;;;;;;-6.50;99.90;;;;;;5053224;28;19925;-67
2021/01/16 06:59:13;;;;;;;;;;;-6.50;99.90;;;;;;5052421;28;20376;-67
2021/01/16 07:01:39;;;;;;;;;;;-6.50;99.90;;;;;;5053636;28;19913;-67
2021/01/16 07:04:05;;;;;;;;;;;-6.60;99.90;;;;;;5053222;28;19908;-67
2021/01/16 07:06:44;;;;;;;;;;;-6.60;99.90;;;;;;5052227;28;19916;-67
2021/01/16 07:09:11;;;;;;;;;;;-6.70;99.90;;;;;;5046986;28;19912;-67
2021/01/16 07:11:47;;;;;;;;;;;-6.70;99.90;;;;;;5053246;28;20372;-67
2021/01/16 07:14:13;;;;;;;;;;;-6.70;99.90;;;;;;5051829;28;20293;-67
2021/01/16 07:16:40;;;;;;;;;;;-6.70;99.90;;;;;;5051550;28;19916;-66
2021/01/16 07:19:06;;;;;;;;;;;-6.70;99.90;;;;;;5050999;28;20262;-66
2021/01/16 07:21:37;;;;;;;;;;;-6.70;99.90;;;;;;5052875;28;19920;-67
2021/01/16 07:24:03;;;;;;;;;;;-6.80;99.90;;;;;;5049732;28;20384;-67
2021/01/16 07:26:29;;;;;;;;;;;-6.80;99.90;;;;;;5052922;28;19909;-66
2021/01/16 07:28:55;;;;;;;;;;;-6.70;99.90;;;;;;5051805;28;19920;-66
2021/01/16 07:31:21;;;;;;;;;;;-6.70;99.90;;;;;;5032027;28;19912;-75
2021/01/16 07:33:47;;;;;;;;;;;-6.60;99.90;;;;;;5031772;28;19904;-69
2021/01/16 07:36:13;;;;;;;;;;;-6.60;99.90;;;;;;5031526;28;19964;-69
2021/01/16 07:38:39;;;;;;;;;;;-6.60;99.90;;;;;;5031939;28;19905;-69
2021/01/16 07:41:07;;;;;;;;;;;-6.50;99.90;;;;;;5031640;28;19912;-69
2021/01/16 07:43:56;;;;;;;;;;;-6.40;99.90;;;;;;5031724;28;19909;-69
2021/01/16 07:46:22;;;;;;;;;;;-6.40;99.90;;;;;;5029860;28;19905;-69
2021/01/16 07:48:49;;;;;;;;;;;-6.40;99.90;;;;;;5031795;28;19912;-69
2021/01/16 07:51:17;;;;;;;;;;;-6.40;99.90;;;;;;5032794;28;19909;-69
2021/01/16 07:53:43;;;;;;;;;;;-6.50;99.90;;;;;;5032932;28;19913;-69
2021/01/16 07:56:16;;;;;;;;;;;-6.50;99.90;;;;;;5043051;28;19916;-69
2021/01/16 07:58:43;;;;;;;;;;;-6.60;99.90;;;;;;5052901;28;19912;-69
2021/01/16 08:01:15;;;;;;;;;;;-6.70;99.90;;;;;;5051112;28;19909;-69
2021/01/16 08:03:41;;;;;;;;;;;-6.70;99.90;;;;;;5052278;28;19909;-69
2021/01/16 08:06:16;;;;;;;;;;;-6.60;99.90;;;;;;5052430;28;19912;-69
2021/01/16 08:08:48;;;;;;;;;;;-6.60;99.90;;;;;;5052296;28;19916;-69
2021/01/16 08:11:15;;;;;;;;;;;-6.60;99.90;;;;;;5052427;28;20377;-69
2021/01/16 08:13:41;;;;;;;;;;;-6.60;99.90;;;;;;5051513;28;19912;-69
2021/01/16 08:16:07;;;;;;;;;;;-6.50;99.90;;;;;;5050264;28;19920;-69
2021/01/16 08:18:33;;;;;;;;;;;-6.50;99.90;;;;;;5051416;28;19909;-69
2021/01/16 08:21:00;;;;;;;;;;;-6.40;99.90;;;;;;5052277;28;19915;-69
2021/01/16 08:23:26;;;;;;;;;;;-6.30;99.90;;;;;;5052455;28;19904;-69
2021/01/16 08:25:52;;;;;;;;;;;-6.30;99.90;;;;;;5052558;28;19916;-69
2021/01/16 08:28:25;;;;;;;;;;;-6.20;99.90;;;;;;5052062;28;19928;-69
2021/01/16 08:30:51;;;;;;;;;;;-6.10;99.90;;;;;;5052494;28;19908;-69
2021/01/16 08:33:17;;;;;;;;;;;-6.00;99.90;;;;;;5050839;28;19911;-69
2021/01/16 08:35:43;;;;;;;;;;;-5.90;99.90;;;;;;5055801;28;19916;-69
2021/01/16 08:38:28;;;;;;;;;;;-5.90;99.90;;;;;;5055814;28;19905;-69
2021/01/16 08:40:54;;;;;;;;;;;-5.80;99.90;;;;;;5056405;28;19912;-69
2021/01/16 08:43:29;;;;;;;;;;;-5.80;99.90;;;;;;5055418;28;19913;-69
2021/01/16 08:46:25;;;;;;;;;;;-5.70;99.90;;;;;;5055777;28;19905;-69
2021/01/16 08:48:57;;;;;;;;;;;-5.60;99.90;;;;;;5050636;28;20346;-70
2021/01/16 08:51:27;;;;;;;;;;;-5.60;99.90;;;;;;5054612;28;19908;-69
2021/01/16 08:54:05;;;;;;;;;;;-5.50;99.90;;;;;;5054060;28;20293;-69
2021/01/16 08:56:31;;;;;;;;;;;-5.40;99.90;;;;;;5054981;28;19923;-70
2021/01/16 08:58:57;;;;;;;;;;;-5.20;99.90;;;;;;5055538;28;19913;-69
2021/01/16 09:01:24;;;;;;;;;;;-5.20;99.90;;;;;;5055342;28;20398;-69
2021/01/16 09:04:09;;;;;;;;;;;-5.10;99.90;;;;;;5055533;28;19905;-69
2021/01/16 09:06:35;;;;;;;;;;;-5.00;99.90;;;;;;5055843;28;20293;-69
2021/01/16 09:09:01;;;;;;;;;;;-4.90;99.90;;;;;;5065548;28;19909;-70
2021/01/16 09:11:27;;;;;;;;;;;-4.80;99.90;;;;;;5054241;28;19905;-70
2021/01/16 09:13:53;;;;;;;;;;;-4.70;99.90;;;;;;5055459;28;19970;-70
2021/01/16 09:16:29;;;;;;;;;;;-4.60;99.90;;;;;;5053955;28;19913;-69
2021/01/16 09:18:55;;;;;;;;;;;-4.50;99.90;;;;;;5055469;28;19905;-69
2021/01/16 09:21:25;;;;;;;;;;;-4.50;99.90;;;;;;5053899;28;19904;-70
2021/01/16 09:23:51;;;;;;;;;;;-4.40;99.90;;;;;;5053347;28;19924;-69
2021/01/16 09:26:18;;;;;;;;;;;-4.50;99.90;;;;;;5054771;28;19909;-70
2021/01/16 09:28:48;;;;;;;;;;;-4.60;99.90;;;;;;5054918;28;19921;-70
2021/01/16 09:31:14;;;;;;;;;;;-4.50;99.90;;;;;;5054987;28;20384;-70
2021/01/16 09:33:43;;;;;;;;;;;-4.50;99.90;;;;;;5054845;28;19908;-70
2021/01/16 09:36:09;;;;;;;;;;;-4.40;99.90;;;;;;5054087;28;19921;-69
2021/01/16 09:38:35;;;;;;;;;;;-4.40;99.90;;;;;;5054277;28;19920;-78
2021/01/16 09:41:01;;;;;;;;;;;-4.30;99.90;;;;;;5054779;28;19909;-70
2021/01/16 09:43:27;;;;;;;;;;;-4.00;99.90;;;;;;5053694;28;19967;-70
2021/01/16 09:45:53;;;;;;;;;;;-3.80;99.90;;;;;;5053702;28;19913;-70
2021/01/16 09:48:41;;;;;;;;;;;-3.60;99.90;;;;;;5044207;28;20403;-70
2021/01/16 09:51:10;;;;;;;;;;;-3.50;99.90;;;;;;5053105;28;19924;-70
2021/01/16 09:53:36;;;;;;;;;;;-3.40;99.90;;;;;;5053921;28;19944;-70
2021/01/16 09:56:02;;;;;;;;;;;-3.30;99.90;;;;;;5053807;28;19960;-70
2021/01/16 09:58:29;;;;;;;;;;;-3.30;99.90;;;;;;5052286;28;19915;-70
2021/01/16 10:00:55;;;;;;;;;;;-3.20;99.90;;;;;;5052497;28;19916;-70
2021/01/16 10:03:35;;;;;;;;;;;-3.30;99.90;;;;;;5053361;28;19999;-70
2021/01/16 10:06:05;;;;;;;;;;;-3.20;99.90;;;;;;5053719;28;19904;-69
2021/01/16 10:08:33;;;;;;;;;;;-3.20;99.90;;;;;;5054046;28;19913;-69
2021/01/16 10:11:00;;;;;;;;;;;-3.00;99.90;;;;;;5053966;28;19908;-68
2021/01/16 10:13:30;;;;;;;;;;;-2.90;99.90;;;;;;5053735;28;19919;-69
2021/01/16 10:15:59;;;;;;;;;;;-3.00;99.90;;;;;;5053513;28;19923;-69
2021/01/16 10:18:28;;;;;;;;;;;-2.80;99.90;;;;;;5053563;28;19923;-68
2021/01/16 10:20:58;;;;;;;;;;;-2.80;99.90;;;;;;5053843;28;19908;-68
2021/01/16 10:23:25;;;;;;;;;;;-2.60;99.90;;;;;;5053256;28;19908;-68
2021/01/16 10:25:52;;;;;;;;;;;-2.60;99.90;;;;;;5053494;28;19908;-68
2021/01/16 10:28:25;;;;;;;;;;;-2.40;99.90;;;;;;5051874;28;19924;-69
2021/01/16 10:30:57;;;;;;;;;;;-2.50;99.90;;;;;;5053476;28;20015;-69
2021/01/16 10:33:23;;;;;;;;;;;-2.50;99.90;;;;;;5052830;28;19916;-69
2021/01/16 10:35:49;;;;;;;;;;;-2.50;99.90;;;;;;5053381;28;19925;-68
2021/01/16 10:38:15;;;;;;;;;;;-2.40;99.90;;;;;;5052954;28;19909;-69
2021/01/16 10:40:48;;;;;;;;;;;-2.30;99.90;;;;;;5052003;28;19996;-69
2021/01/16 10:43:14;;;;;;;;;;;-2.30;99.90;;;;;;5052092;28;19916;-69
2021/01/16 10:45:40;;;;;;;;;;;-2.20;99.90;;;;;;5053070;28;20357;-69
2021/01/16 10:48:18;;;;;;;;;;;-2.30;99.90;;;;;;5043106;28;19909;-69
2021/01/16 10:50:44;;;;;;;;;;;-2.40;99.90;;;;;;5052039;28;20353;-69
2021/01/16 10:53:10;;;;;;;;;;;-2.40;99.90;;;;;;5052672;28;19919;-69
2021/01/16 10:55:55;;;;;;;;;;;-2.50;99.90;;;;;;5053517;28;19917;-70
2021/01/16 10:58:24;;;;;;;;;;;-2.50;99.90;;;;;;5051659;28;19920;-69
2021/01/16 11:00:57;;;;;;;;;;;-2.30;99.90;;;;;;5051826;28;19909;-69
2021/01/16 11:03:27;;;;;;;;;;;-2.20;99.90;;;;;;5052334;28;19909;-69
2021/01/16 11:05:56;;;;;;;;;;;-2.10;99.90;;;;;;5052627;28;20289;-70
2021/01/16 11:08:26;;;;;;;;;;;-1.90;99.90;;;;;;5051526;28;19909;-69
2021/01/16 11:10:52;;;;;;;;;;;-1.90;99.90;;;;;;5052749;28;20284;-70
2021/01/16 11:13:22;;;;;;;;;;;-1.90;99.90;;;;;;5051459;28;19908;-70
2021/01/16 11:15:51;;;;;;;;;;;-2.00;99.90;;;;;;5052773;28;20293;-69
2021/01/16 11:18:30;;;;;;;;;;;-1.90;99.90;;;;;;5052080;28;19912;-70
2021/01/16 11:21:06;;;;;;;;;;;-2.00;99.90;;;;;;5048568;28;19908;-70
2021/01/16 11:23:34;;;;;;;;;;;-2.10;99.90;;;;;;5052333;28;19917;-69
2021/01/16 11:26:07;;;;;;;;;;;-2.00;99.90;;;;;;5052615;28;20362;-70
2021/01/16 11:28:45;;;;;;;;;;;-2.00;99.90;;;;;;5051618;28;19920;-69
2021/01/16 11:31:11;;;;;;;;;;;-2.10;99.90;;;;;;5052462;28;19916;-70
2021/01/16 11:33:39;;;;;;;;;;;-2.00;99.90;;;;;;5051273;28;19909;-70
2021/01/16 11:36:12;;;;;;;;;;;-1.90;99.90;;;;;;5051111;28;19947;-69
2021/01/16 11:38:45;;;;;;;;;;;-1.90;99.90;;;;;;5052359;28;19979;-69
2021/01/16 11:41:12;;;;;;;;;;;-1.70;99.90;;;;;;5050080;28;19909;-70
2021/01/16 11:43:38;;;;;;;;;;;-1.60;99.90;;;;;;5051616;28;19913;-70
2021/01/16 11:46:05;;;;;;;;;;;-1.50;99.90;;;;;;5033764;28;20289;-70
2021/01/16 11:48:32;;;;;;;;;;;-1.50;99.90;;;;;;5051842;28;19920;-70
2021/01/16 11:51:19;;;;;;;;;;;-1.40;99.90;;;;;;5053013;28;19920;-69
2021/01/16 11:53:49;;;;;;;;;;;-1.30;99.90;;;;;;5052188;28;20358;-68
2021/01/16 11:56:15;;;;;;;;;;;-1.40;99.90;;;;;;5050646;28;19928;-70
2021/01/16 11:58:43;;;;;;;;;;;-1.40;99.90;;;;;;5056687;28;20277;-69
2021/01/16 12:01:09;;;;;;;;;;;-1.40;99.90;;;;;;5056894;28;19909;-68
2021/01/16 12:03:35;;;;;;;;;;;-1.50;99.90;;;;;;5050211;28;20007;-69
2021/01/16 12:06:17;;;;;;;;;;;-1.50;99.90;;;;;;5053632;28;19916;-69
2021/01/16 12:08:46;;;;;;;;;;;-1.50;99.90;;;;;;5053253;28;19909;-69
2021/01/16 12:11:13;;;;;;;;;;;-1.70;99.90;;;;;;5056240;28;20316;-69
2021/01/16 12:13:40;;;;;;;;;;;-1.70;99.90;;;;;;5054880;28;19916;-69
2021/01/16 12:16:07;;;;;;;;;;;-1.80;99.90;;;;;;5056129;28;19921;-69
2021/01/16 12:18:33;;;;;;;;;;;-1.90;99.90;;;;;;5054180;28;19920;-69
2021/01/16 12:21:02;;;;;;;;;;;-2.00;99.90;;;;;;5059575;28;19912;-69
2021/01/16 12:23:27;;;;;;;;;;;-2.10;99.90;;;;;;5055618;28;19912;-69
2021/01/16 12:25:53;;;;;;;;;;;-2.10;99.90;;;;;;5056747;28;19963;-68
2021/01/16 12:28:26;;;;;;;;;;;-2.20;99.90;;;;;;5054207;28;19917;-68
2021/01/16 12:30:52;;;;;;;;;;;-2.20;99.90;;;;;;5055773;28;19908;-68
2021/01/16 12:33:24;;;;;;;;;;;-2.30;99.90;;;;;;5057796;28;19974;-69
2021/01/16 12:35:50;;;;;;;;;;;-2.30;99.90;;;;;;5060104;28;19912;-69
2021/01/16 12:38:16;;;;;;;;;;;-2.30;99.90;;;;;;5061634;28;19920;-70
2021/01/16 12:40:42;;;;;;;;;;;-2.30;99.90;;;;;;5065625;28;19909;-68
2021/01/16 12:43:11;;;;;;;;;;;-2.40;99.90;;;;;;5055691;28;20035;-71
2021/01/16 12:45:37;;;;;;;;;;;-2.30;99.90;;;;;;5054985;28;19909;-70
2021/01/16 12:48:03;;;;;;;;;;;-2.20;99.90;;;;;;5055194;28;19909;-71
2021/01/16 12:50:29;;;;;;;;;;;-2.30;99.90;;;;;;5053670;28;20361;-70
2021/01/16 12:52:55;;;;;;;;;;;-2.30;99.90;;;;;;5054929;28;19913;-70
2021/01/16 12:55:22;;;;;;;;;;;-2.30;99.90;;;;;;5054508;28;19915;-71
2021/01/16 12:57:49;;;;;;;;;;;-2.30;99.90;;;;;;5055619;28;19920;-71
2021/01/16 13:00:16;;;;;;;;;;;-2.40;99.90;;;;;;5055024;28;19913;-70
2021/01/16 13:02:42;;;;;;;;;;;-2.40;99.90;;;;;;5055170;28;20003;-70
2021/01/16 13:05:09;;;;;;;;;;;-2.40;99.90;;;;;;5054181;28;19905;-70
2021/01/16 13:07:35;;;;;;;;;;;-2.40;99.90;;;;;;5055367;28;20374;-70
2021/01/16 13:10:05;;;;;;;;;;;-2.40;99.90;;;;;;5054529;28;19911;-70
2021/01/16 13:12:32;;;;;;;;;;;-2.40;99.90;;;;;;5037940;28;19909;-70
2021/01/16 13:14:58;;;;;;;;;;;-2.40;99.90;;;;;;5050237;28;20365;-70
2021/01/16 13:17:25;;;;;;;;;;;-2.40;99.90;;;;;;5049510;28;19923;-70
2021/01/16 13:19:51;;;;;;;;;;;-2.40;99.90;;;;;;5054496;28;19913;-70
2021/01/16 13:22:17;;;;;;;;;;;-2.30;99.90;;;;;;5054572;28;19913;-70
2021/01/16 13:24:44;;;;;;;;;;;-2.30;99.90;;;;;;5054920;28;19913;-70
2021/01/16 13:27:22;;;;;;;;;;;-2.30;99.90;;;;;;5053108;28;19916;-71
2021/01/16 13:29:49;;;;;;;;;;;-2.30;99.90;;;;;;5053336;28;19917;-71
2021/01/16 13:32:17;;;;;;;;;;;-2.20;99.90;;;;;;5036267;28;20281;-70
2021/01/16 13:34:43;;;;;;;;;;;-2.30;99.90;;;;;;5054576;28;20349;-71
2021/01/16 13:37:13;;;;;;;;;;;-2.30;99.90;;;;;;5053801;28;19920;-69
2021/01/16 13:39:39;;;;;;;;;;;-2.30;99.90;;;;;;5053075;28;19909;-69
2021/01/16 13:42:05;;;;;;;;;;;-2.30;99.90;;;;;;5072254;28;19912;-70
2021/01/16 13:44:31;;;;;;;;;;;-2.30;99.90;;;;;;5052796;28;19978;-72
2021/01/16 13:46:56;;;;;;;;;;;-2.20;99.90;;;;;;5054659;28;19909;-70
2021/01/16 13:49:25;;;;;;;;;;;-2.10;99.90;;;;;;5054314;28;20269;-71
2021/01/16 13:52:00;;;;;;;;;;;-2.10;99.90;;;;;;5053657;28;19913;-70
2021/01/16 13:54:30;;;;;;;;;;;-2.10;99.90;;;;;;5049293;28;19912;-71
2021/01/16 13:56:56;;;;;;;;;;;-2.20;99.90;;;;;;5054782;28;19917;-75
2021/01/16 13:59:28;;;;;;;;;;;-2.20;99.90;;;;;;5051421;28;20258;-69
2021/01/16 14:01:59;;;;;;;;;;;-2.20;99.90;;;;;;5051239;28;19919;-69
2021/01/16 14:04:25;;;;;;;;;;;-2.30;99.90;;;;;;5048750;28;19912;-69
2021/01/16 14:06:55;;;;;;;;;;;-2.30;99.90;;;;;;5052063;28;19963;-69
2021/01/16 14:09:20;;;;;;;;;;;-2.30;99.90;;;;;;5051475;28;19908;-68
2021/01/16 14:11:46;;;;;;;;;;;-2.30;99.90;;;;;;5050597;28;19916;-69
2021/01/16 14:14:19;;;;;;;;;;;-2.30;99.90;;;;;;5052507;28;19908;-69
2021/01/16 14:16:45;;;;;;;;;;;-2.30;99.90;;;;;;5052675;28;19932;-69
2021/01/16 14:19:14;;;;;;;;;;;-2.30;99.90;;;;;;5053324;28;20003;-69
2021/01/16 14:21:40;;;;;;;;;;;-2.30;99.90;;;;;;5052430;28;19915;-69